Time;durP1;ratioP1;P1;durP2;ratioP2;P2;SDS_P1;SDS_P2;PMS_P1;PMS_P2;Temp;Humidity;BMP_temperature;BMP_pressure;BME280_temperature;BME280_humidity;BME280_pressure;Samples;Min_cycle;Max_cycle;Signal;HPM_P1;HPM_P2
2022/05/18 00:00:19;;;;;;;5.10;1.77;;;16.20;99.90;;;;;;5099360;28;20477;-69
2022/05/18 00:02:46;;;;;;;3.00;2.20;;;16.20;99.90;;;;;;5097487;28;20890;-69
2022/05/18 00:05:13;;;;;;;2.40;2.10;;;16.20;99.90;;;;;;5098270;28;20453;-69
2022/05/18 00:07:40;;;;;;;5.40;1.87;;;16.10;99.90;;;;;;5099264;28;20496;-69
2022/05/18 00:10:08;;;;;;;4.03;2.10;;;16.10;99.90;;;;;;5099744;28;20456;-68
2022/05/18 00:12:35;;;;;;;5.80;2.07;;;16.00;99.90;;;;;;5099541;28;20449;-69
2022/05/18 00:15:03;;;;;;;6.23;2.10;;;16.00;99.90;;;;;;5099115;28;20457;-69
2022/05/18 00:17:29;;;;;;;12.07;2.70;;;16.00;99.90;;;;;;5098546;28;20461;-69
2022/05/18 00:19:56;;;;;;;6.03;2.10;;;15.90;99.90;;;;;;5099170;28;20489;-68
2022/05/18 00:22:23;;;;;;;3.07;2.23;;;15.90;99.90;;;;;;5100557;28;20842;-69
2022/05/18 00:24:49;;;;;;;3.00;2.20;;;15.90;99.90;;;;;;5100422;28;20840;-69
2022/05/18 00:27:16;;;;;;;6.90;2.30;;;15.90;99.90;;;;;;5100434;28;20491;-69
2022/05/18 00:29:43;;;;;;;4.07;2.23;;;15.80;99.90;;;;;;5100569;28;20905;-69
2022/05/18 00:32:11;;;;;;;4.23;2.33;;;15.80;99.90;;;;;;5099861;28;20533;-69
2022/05/18 00:34:38;;;;;;;4.23;2.00;;;15.70;99.90;;;;;;5099273;28;20453;-69
2022/05/18 00:37:05;;;;;;;4.20;2.20;;;15.80;99.90;;;;;;5102854;28;20464;-69
2022/05/18 00:39:32;;;;;;;3.70;2.53;;;15.80;99.90;;;;;;5103761;28;20457;-69
2022/05/18 00:41:59;;;;;;;6.23;2.20;;;15.80;99.90;;;;;;5104165;28;20453;-69
2022/05/18 00:44:25;;;;;;;4.13;3.60;;;15.80;99.90;;;;;;5103607;28;20787;-69
2022/05/18 00:46:52;;;;;;;3.13;2.20;;;15.70;99.90;;;;;;5104222;28;20465;-71
2022/05/18 00:49:20;;;;;;;4.23;2.10;;;15.70;99.90;;;;;;5103882;28;20465;-70
2022/05/18 00:51:53;;;;;;;4.83;3.10;;;15.70;99.90;;;;;;5104069;28;20468;-69
2022/05/18 00:54:26;;;;;;;6.00;2.53;;;15.70;99.90;;;;;;5104079;28;20437;-70
2022/05/18 00:56:57;;;;;;;5.67;2.50;;;15.70;99.90;;;;;;5104404;28;20920;-69
2022/05/18 00:59:27;;;;;;;5.03;2.33;;;15.60;99.90;;;;;;5104199;28;20536;-69
2022/05/18 01:01:55;;;;;;;3.73;1.93;;;15.50;99.90;;;;;;5104390;28;20444;-69
2022/05/18 01:04:24;;;;;;;3.13;2.20;;;15.50;99.90;;;;;;5104016;28;20843;-69
2022/05/18 01:06:58;;;;;;;3.63;2.00;;;15.50;99.90;;;;;;5103510;28;20519;-69
2022/05/18 01:09:28;;;;;;;4.17;2.00;;;15.50;99.90;;;;;;5102535;28;20452;-69
2022/05/18 01:11:55;;;;;;;4.57;2.03;;;15.50;99.90;;;;;;5102561;28;20457;-70
2022/05/18 01:14:26;;;;;;;2.27;1.87;;;15.40;99.90;;;;;;5102845;28;20481;-70
2022/05/18 01:16:53;;;;;;;2.20;1.83;;;15.40;99.90;;;;;;5104025;28;20445;-69
2022/05/18 01:19:31;;;;;;;5.33;2.03;;;15.40;99.90;;;;;;5104135;28;20790;-70
2022/05/18 01:22:08;;;;;;;5.20;2.20;;;15.40;99.90;;;;;;5104396;28;20449;-69
2022/05/18 01:24:40;;;;;;;4.03;1.53;;;15.30;99.90;;;;;;5103875;28;20449;-69
2022/05/18 01:27:09;;;;;;;7.10;2.07;;;15.30;99.90;;;;;;5103282;28;20433;-69
2022/05/18 01:29:36;;;;;;;3.30;2.10;;;15.20;99.90;;;;;;5103692;28;20453;-70
2022/05/18 01:32:05;;;;;;;2.10;1.40;;;15.20;99.90;;;;;;5103557;28;20484;-69
2022/05/18 01:34:35;;;;;;;5.80;1.63;;;15.10;99.90;;;;;;5102797;28;20627;-69
2022/05/18 01:37:02;;;;;;;4.43;2.00;;;15.10;99.90;;;;;;5103646;28;20481;-69
2022/05/18 01:39:34;;;;;;;3.17;2.00;;;15.00;99.90;;;;;;5103466;28;20456;-69
2022/05/18 01:42:10;;;;;;;3.60;2.00;;;15.00;99.90;;;;;;5103415;28;20538;-69
2022/05/18 01:44:40;;;;;;;6.13;2.00;;;15.00;99.90;;;;;;5103947;28;20437;-69
2022/05/18 01:47:07;;;;;;;7.67;2.57;;;15.00;99.90;;;;;;5102714;28;20449;-69
2022/05/18 01:49:35;;;;;;;7.03;1.80;;;15.00;99.90;;;;;;5103993;28;20457;-69
2022/05/18 01:52:02;;;;;;;4.47;1.87;;;15.00;99.90;;;;;;5103974;28;20771;-70
2022/05/18 01:54:29;;;;;;;3.00;1.63;;;15.00;99.90;;;;;;5103643;28;20511;-69
2022/05/18 01:56:58;;;;;;;2.60;1.87;;;15.00;99.90;;;;;;5103803;28;20476;-69
2022/05/18 01:59:24;;;;;;;2.70;1.63;;;15.00;99.90;;;;;;5103163;28;20725;-69
2022/05/18 02:01:52;;;;;;;2.07;1.70;;;14.90;99.90;;;;;;5103713;28;20481;-69
2022/05/18 02:04:19;;;;;;;6.50;1.90;;;14.90;99.90;;;;;;5103922;28;20457;-69
2022/05/18 02:06:45;;;;;;;3.63;1.57;;;14.90;99.90;;;;;;5103645;28;20483;-70
2022/05/18 02:09:16;;;;;;;5.13;1.60;;;14.90;99.90;;;;;;5102888;28;20433;-69
2022/05/18 02:11:44;;;;;;;5.60;1.50;;;14.80;99.90;;;;;;5103236;28;20437;-69
2022/05/18 02:14:10;;;;;;;2.83;1.40;;;14.80;99.90;;;;;;5103833;28;20784;-69
2022/05/18 02:16:38;;;;;;;1.80;1.33;;;14.80;99.90;;;;;;5103348;28;20476;-69
2022/05/18 02:19:06;;;;;;;4.40;1.40;;;14.70;99.90;;;;;;5103237;28;20449;-70
2022/05/18 02:21:33;;;;;;;7.00;2.23;;;14.70;99.90;;;;;;5102834;28;20797;-69
2022/05/18 02:24:00;;;;;;;3.70;1.43;;;14.60;99.90;;;;;;5102754;28;20457;-69
2022/05/18 02:26:27;;;;;;;3.53;1.70;;;14.60;99.90;;;;;;5103447;28;20465;-68
2022/05/18 02:28:53;;;;;;;6.63;1.50;;;14.60;99.90;;;;;;5103511;28;20453;-69
2022/05/18 02:31:20;;;;;;;6.30;1.70;;;14.60;99.90;;;;;;5103139;28;20510;-69
2022/05/18 02:33:47;;;;;;;3.10;1.57;;;14.50;99.90;;;;;;5103214;28;20457;-69
2022/05/18 02:36:15;;;;;;;2.40;1.23;;;14.50;99.90;;;;;;5103598;28;20458;-69
2022/05/18 02:38:42;;;;;;;3.13;1.50;;;14.50;99.90;;;;;;5102905;28;20926;-68
2022/05/18 02:41:10;;;;;;;3.00;1.63;;;14.40;99.90;;;;;;5102628;28;20473;-68
2022/05/18 02:43:38;;;;;;;10.60;1.70;;;14.40;99.90;;;;;;5103295;28;20472;-70
2022/05/18 02:46:07;;;;;;;3.10;1.13;;;14.40;99.90;;;;;;5102697;28;20496;-69
2022/05/18 02:48:34;;;;;;;2.30;1.40;;;14.30;99.90;;;;;;5102755;28;20522;-69
2022/05/18 02:51:00;;;;;;;3.53;1.50;;;14.40;99.90;;;;;;5102097;28;20453;-69
2022/05/18 02:53:28;;;;;;;3.80;1.50;;;14.30;99.90;;;;;;5101279;28;20457;-69
2022/05/18 02:56:06;;;;;;;1.87;1.30;;;14.20;99.90;;;;;;5102123;28;20453;-70
2022/05/18 02:58:35;;;;;;;1.70;1.47;;;14.20;99.90;;;;;;5102126;28;20478;-70
2022/05/18 03:01:02;;;;;;;3.53;1.20;;;14.20;99.90;;;;;;5102827;28;20499;-69
2022/05/18 03:03:29;;;;;;;1.50;1.20;;;14.20;99.90;;;;;;5102516;28;20457;-69
2022/05/18 03:05:55;;;;;;;2.13;1.20;;;14.20;99.90;;;;;;5102829;28;20814;-68
2022/05/18 03:08:22;;;;;;;4.63;1.53;;;14.10;99.90;;;;;;5101479;28;20980;-69
2022/05/18 03:10:50;;;;;;;2.70;1.17;;;14.10;99.90;;;;;;5101074;28;20510;-69
2022/05/18 03:13:17;;;;;;;4.60;1.60;;;14.10;99.90;;;;;;5100670;28;20457;-70
2022/05/18 03:15:46;;;;;;;2.13;1.47;;;14.10;99.90;;;;;;5098919;28;20495;-69
2022/05/18 03:18:13;;;;;;;2.90;1.53;;;14.10;99.90;;;;;;5101083;28;20457;-69
2022/05/18 03:23:37;;;;;;;4.90;1.83;;;14.00;99.60;;;;;;5100521;28;20444;-69
2022/05/18 03:26:08;;;;;;;6.27;1.53;;;14.00;99.90;;;;;;5099914;28;20819;-69
2022/05/18 03:28:35;;;;;;;1.97;1.50;;;13.90;99.60;;;;;;5099647;28;20503;-70
2022/05/18 03:31:03;;;;;;;1.97;1.33;;;13.80;99.10;;;;;;5098788;28;20466;-70
2022/05/18 03:33:30;;;;;;;2.73;1.30;;;13.80;99.00;;;;;;5098095;28;20461;-70
2022/05/18 03:35:57;;;;;;;1.60;1.30;;;13.80;98.90;;;;;;5098804;28;20453;-69
2022/05/18 03:38:23;;;;;;;2.33;1.20;;;13.80;99.40;;;;;;5101595;28;20465;-69
2022/05/18 03:40:50;;;;;;;1.40;1.20;;;13.80;98.50;;;;;;5100950;28;20481;-70
2022/05/18 03:43:19;;;;;;;4.07;1.23;;;13.80;98.80;;;;;;5101311;28;20458;-68
2022/05/18 03:45:46;;;;;;;2.70;1.13;;;13.80;98.80;;;;;;5101325;28;20453;-69
2022/05/18 03:48:14;;;;;;;1.90;1.20;;;13.80;97.80;;;;;;5100965;28;20457;-69
2022/05/18 03:50:44;;;;;;;5.70;1.50;;;13.80;98.20;;;;;;5101373;28;20476;-69
2022/05/18 03:53:11;;;;;;;2.03;1.70;;;13.80;97.70;;;;;;5101759;28;20449;-69
2022/05/18 03:55:39;;;;;;;1.90;1.43;;;13.90;97.70;;;;;;5100677;28;20522;-69
2022/05/18 03:58:06;;;;;;;2.90;1.63;;;13.90;96.10;;;;;;5101119;28;20459;-69
2022/05/18 04:00:35;;;;;;;3.57;1.40;;;13.90;96.80;;;;;;5100610;28;20457;-69
2022/05/18 04:03:01;;;;;;;2.30;1.13;;;13.90;96.10;;;;;;5101591;28;20457;-70
2022/05/18 04:05:28;;;;;;;2.00;1.50;;;13.90;95.50;;;;;;5101864;28;20557;-70
2022/05/18 04:07:55;;;;;;;2.83;1.30;;;13.90;96.40;;;;;;5101491;28;20492;-70
2022/05/18 04:10:22;;;;;;;3.80;1.40;;;13.90;96.50;;;;;;5099120;28;20795;-68
2022/05/18 04:12:48;;;;;;;3.07;1.10;;;13.90;96.10;;;;;;5099029;28;20538;-68
2022/05/18 04:15:17;;;;;;;2.47;1.87;;;13.90;96.10;;;;;;5098200;28;20534;-69
2022/05/18 04:17:46;;;;;;;3.27;2.20;;;13.90;96.40;;;;;;5099621;28;20487;-69
2022/05/18 04:20:13;;;;;;;2.10;1.37;;;13.90;96.30;;;;;;5101140;28;20461;-69
2022/05/18 04:22:41;;;;;;;2.00;1.80;;;14.00;95.60;;;;;;5101287;28;20488;-69
2022/05/18 04:25:09;;;;;;;1.70;1.40;;;14.00;96.40;;;;;;5101057;28;20925;-69
2022/05/18 04:27:36;;;;;;;3.20;1.70;;;14.00;95.40;;;;;;5101787;28;20547;-69
2022/05/18 04:30:03;;;;;;;2.73;1.97;;;14.10;97.50;;;;;;5101842;28;20457;-70
2022/05/18 04:32:30;;;;;;;2.00;1.60;;;14.10;99.20;;;;;;5101752;28;20454;-70
2022/05/18 04:34:58;;;;;;;3.43;1.37;;;14.20;97.00;;;;;;5100991;28;20538;-69
2022/05/18 04:37:25;;;;;;;4.30;1.50;;;14.30;96.40;;;;;;5101064;28;20586;-68
2022/05/18 04:39:51;;;;;;;4.43;1.57;;;14.30;96.20;;;;;;5101165;28;20457;-70
2022/05/18 04:42:22;;;;;;;4.93;1.80;;;14.30;95.50;;;;;;5101694;28;20851;-70
2022/05/18 04:44:49;;;;;;;4.00;1.70;;;14.30;96.00;;;;;;5101662;28;20544;-70
2022/05/18 04:47:16;;;;;;;3.37;1.40;;;14.30;96.70;;;;;;5101417;28;20775;-70
2022/05/18 04:49:42;;;;;;;3.10;1.40;;;14.30;95.90;;;;;;5100796;28;20563;-69
2022/05/18 04:52:10;;;;;;;3.80;1.20;;;14.30;96.00;;;;;;5100842;28;20449;-70
2022/05/18 04:54:37;;;;;;;28.43;18.70;;;14.40;95.50;;;;;;5100071;28;20468;-69
2022/05/18 04:57:05;;;;;;;5.43;2.90;;;14.40;95.00;;;;;;5100559;28;20925;-69
2022/05/18 04:59:31;;;;;;;3.30;1.50;;;14.50;94.90;;;;;;5100677;28;20453;-70
2022/05/18 05:01:59;;;;;;;1.63;1.23;;;14.50;94.50;;;;;;5100470;28;20484;-70
2022/05/18 05:04:25;;;;;;;3.13;1.60;;;14.50;95.10;;;;;;5100281;28;20464;-71
2022/05/18 05:06:52;;;;;;;2.57;1.30;;;14.50;95.10;;;;;;5099454;28;20783;-70
2022/05/18 05:09:22;;;;;;;1.80;1.17;;;14.60;94.90;;;;;;5099939;28;20499;-69
2022/05/18 05:11:49;;;;;;;1.50;1.33;;;14.60;94.60;;;;;;5100057;28;20914;-69
2022/05/18 05:14:16;;;;;;;1.80;1.20;;;14.60;94.80;;;;;;5100395;28;20835;-70
2022/05/18 05:16:42;;;;;;;1.40;1.23;;;14.60;94.60;;;;;;5099977;28;20456;-69
2022/05/18 05:19:09;;;;;;;1.97;1.37;;;14.60;94.80;;;;;;5099804;28;20453;-69
2022/05/18 05:21:41;;;;;;;3.93;1.60;;;14.60;94.70;;;;;;5100301;28;20476;-71
2022/05/18 05:24:09;;;;;;;3.90;1.50;;;14.70;94.80;;;;;;5103274;28;20441;-68
2022/05/18 05:26:37;;;;;;;5.20;4.07;;;14.70;94.80;;;;;;5102851;28;20771;-69
2022/05/18 05:29:04;;;;;;;2.60;1.80;;;14.70;94.70;;;;;;5102767;28;20457;-69
2022/05/18 05:31:31;;;;;;;2.70;1.17;;;14.80;94.70;;;;;;5103119;28;20449;-70
2022/05/18 05:33:58;;;;;;;3.83;1.80;;;14.70;94.50;;;;;;5102697;28;20853;-70
2022/05/18 05:36:26;;;;;;;1.97;1.30;;;14.70;94.60;;;;;;5103164;28;20465;-70
2022/05/18 05:38:53;;;;;;;4.20;1.30;;;14.80;93.90;;;;;;5102798;28;20461;-70
2022/05/18 05:41:20;;;;;;;4.50;2.07;;;14.80;94.30;;;;;;5102812;28;20891;-70
2022/05/18 05:43:50;;;;;;;1.80;1.20;;;14.80;94.30;;;;;;5103981;28;20457;-70
2022/05/18 05:46:17;;;;;;;2.30;1.47;;;14.70;93.90;;;;;;5103903;28;20471;-70
2022/05/18 05:48:46;;;;;;;2.43;1.60;;;14.60;94.40;;;;;;5103448;28;20492;-70
2022/05/18 05:51:14;;;;;;;4.50;1.70;;;14.60;95.50;;;;;;5102441;28;20472;-69
2022/05/18 05:53:41;;;;;;;1.83;1.30;;;14.60;96.00;;;;;;5103208;28;20457;-69
2022/05/18 05:56:08;;;;;;;4.50;1.77;;;14.70;95.80;;;;;;5103207;28;20464;-69
2022/05/18 05:58:37;;;;;;;2.37;1.63;;;14.70;95.80;;;;;;5102307;28;20473;-70
2022/05/18 06:01:07;;;;;;;1.80;1.40;;;14.80;96.30;;;;;;5102224;28;20775;-70
2022/05/18 06:03:34;;;;;;;2.97;1.40;;;14.80;96.50;;;;;;5103187;28;20448;-70
2022/05/18 06:06:04;;;;;;;3.57;1.67;;;14.80;96.50;;;;;;5103074;28;20496;-69
2022/05/18 06:08:31;;;;;;;1.70;1.30;;;14.90;96.00;;;;;;5102373;28;20489;-69
2022/05/18 06:10:58;;;;;;;2.20;1.60;;;15.00;96.00;;;;;;5103711;28;20458;-70
2022/05/18 06:13:26;;;;;;;5.50;1.70;;;15.00;96.80;;;;;;5103356;28;20483;-71
2022/05/18 06:15:53;;;;;;;3.70;1.70;;;15.10;97.00;;;;;;5102287;28;20852;-69
2022/05/18 06:18:21;;;;;;;2.53;2.10;;;15.10;96.90;;;;;;5102125;28;20922;-70
2022/05/18 06:20:49;;;;;;;7.13;1.63;;;15.10;96.20;;;;;;5102465;28;20457;-70
2022/05/18 06:23:17;;;;;;;2.93;1.73;;;15.20;96.20;;;;;;5102265;28;20477;-70
2022/05/18 06:25:44;;;;;;;5.90;1.77;;;15.10;96.50;;;;;;5102855;28;20453;-71
2022/05/18 06:28:11;;;;;;;7.90;1.70;;;15.20;96.80;;;;;;5103003;28;20485;-70
2022/05/18 06:30:38;;;;;;;3.33;1.60;;;15.20;96.80;;;;;;5102179;28;20464;-70
2022/05/18 06:33:05;;;;;;;3.93;1.80;;;15.20;96.70;;;;;;5101886;28;20825;-70
2022/05/18 06:35:33;;;;;;;3.30;1.57;;;15.20;97.60;;;;;;5102140;28;20449;-70
2022/05/18 06:38:00;;;;;;;3.53;1.60;;;15.30;97.10;;;;;;5102226;28;20453;-69
2022/05/18 06:43:08;;;;;;;3.43;2.17;;;15.30;97.70;;;;;;5100299;28;20492;-69
2022/05/18 06:45:34;;;;;;;3.43;2.10;;;15.40;97.40;;;;;;5101753;28;20468;-69
2022/05/18 06:48:01;;;;;;;3.80;2.00;;;15.50;98.40;;;;;;5101232;28;20837;-69
2022/05/18 06:50:28;;;;;;;6.33;1.60;;;15.60;98.80;;;;;;5099714;28;20453;-70
2022/05/18 06:52:56;;;;;;;3.90;2.00;;;15.70;98.70;;;;;;5101375;28;20463;-70
2022/05/18 06:55:23;;;;;;;4.07;2.23;;;15.90;98.80;;;;;;5100826;28;20465;-69
2022/05/18 06:57:49;;;;;;;3.00;1.77;;;16.00;98.40;;;;;;5100753;28;20453;-70
2022/05/18 07:00:17;;;;;;;2.17;1.60;;;16.10;98.60;;;;;;5099862;28;20472;-70
2022/05/18 07:02:43;;;;;;;3.47;2.00;;;16.20;98.70;;;;;;5099836;28;20769;-70
2022/05/18 07:05:10;;;;;;;2.53;1.50;;;16.30;98.90;;;;;;5101398;28;20540;-70
2022/05/18 07:07:38;;;;;;;2.07;1.67;;;16.40;99.40;;;;;;5099953;28;20500;-70
2022/05/18 07:10:07;;;;;;;8.27;2.53;;;16.50;99.00;;;;;;5099322;28;20517;-70
2022/05/18 07:12:37;;;;;;;2.33;1.90;;;16.50;99.40;;;;;;5099983;28;20461;-71
2022/05/18 07:15:05;;;;;;;4.00;2.50;;;16.60;99.40;;;;;;5100230;28;20442;-70
2022/05/18 07:17:31;;;;;;;5.70;2.30;;;16.60;99.70;;;;;;5101116;28;20457;-70
2022/05/18 07:19:58;;;;;;;3.50;2.10;;;16.70;99.40;;;;;;5100449;28;20457;-70
2022/05/18 07:22:25;;;;;;;3.83;2.20;;;16.70;99.70;;;;;;5098485;28;20481;-70
2022/05/18 07:24:52;;;;;;;2.93;2.30;;;16.80;99.90;;;;;;5098138;28;20461;-69
2022/05/18 07:27:20;;;;;;;3.03;2.07;;;16.80;99.90;;;;;;5097667;28;20481;-70
2022/05/18 07:29:46;;;;;;;6.37;2.30;;;17.00;99.90;;;;;;5098336;28;20457;-69
2022/05/18 07:32:13;;;;;;;3.87;2.43;;;17.10;99.70;;;;;;5098745;28;20548;-69
2022/05/18 07:34:41;;;;;;;2.73;2.20;;;17.20;99.30;;;;;;5098976;28;20462;-69
2022/05/18 07:37:09;;;;;;;3.87;2.90;;;17.20;99.90;;;;;;5098138;28;20453;-71
2022/05/18 07:39:36;;;;;;;3.60;2.60;;;17.20;99.90;;;;;;5098022;28;20468;-71
2022/05/18 07:42:05;;;;;;;3.60;2.97;;;17.30;99.90;;;;;;5098037;28;20484;-70
2022/05/18 07:44:34;;;;;;;5.13;2.50;;;17.40;99.90;;;;;;5098219;28;20469;-69
2022/05/18 07:47:02;;;;;;;6.40;3.30;;;17.60;99.90;;;;;;5097775;28;20507;-69
2022/05/18 07:49:29;;;;;;;2.63;2.37;;;17.60;99.90;;;;;;5097920;28;20449;-70
2022/05/18 07:51:56;;;;;;;3.57;2.70;;;17.60;99.90;;;;;;5097802;28;20522;-70
2022/05/18 07:54:22;;;;;;;5.87;2.43;;;17.80;99.90;;;;;;5098346;28;20836;-70
2022/05/18 07:56:49;;;;;;;4.27;2.60;;;17.90;99.90;;;;;;5097776;28;20852;-69
2022/05/18 07:59:16;;;;;;;3.63;2.50;;;18.00;99.90;;;;;;5098079;28;20465;-69
2022/05/18 08:01:44;;;;;;;3.93;2.43;;;18.00;99.90;;;;;;5097986;28;20988;-70
2022/05/18 08:04:10;;;;;;;3.50;2.43;;;18.10;99.90;;;;;;5098197;28;20469;-70
2022/05/18 08:06:38;;;;;;;5.00;2.57;;;18.20;99.90;;;;;;5097326;28;20860;-69
2022/05/18 08:09:05;;;;;;;5.10;2.90;;;18.30;99.90;;;;;;5097792;28;20453;-70
2022/05/18 08:17:01;;;;;;;9.60;2.93;;;18.40;99.90;;;;;;5096672;28;20518;-71
2022/05/18 08:19:29;;;;;;;3.63;3.03;;;18.40;99.90;;;;;;5098649;28;20461;-69
2022/05/18 08:21:56;;;;;;;5.57;3.00;;;18.50;99.90;;;;;;5099773;28;20454;-69
2022/05/18 08:24:23;;;;;;;3.20;2.73;;;18.60;99.90;;;;;;5099644;28;20916;-70
2022/05/18 08:26:49;;;;;;;3.47;2.60;;;18.70;99.90;;;;;;5097323;28;20461;-70
2022/05/18 08:29:16;;;;;;;9.20;3.30;;;18.80;99.90;;;;;;5096725;28;20453;-70
2022/05/18 08:31:43;;;;;;;3.50;2.83;;;18.90;99.90;;;;;;5097867;28;20457;-69
2022/05/18 08:34:10;;;;;;;5.27;2.43;;;19.00;99.90;;;;;;5098972;28;20463;-70
2022/05/18 08:36:38;;;;;;;8.07;4.00;;;19.00;99.90;;;;;;5098472;28;20510;-70
2022/05/18 08:39:05;;;;;;;6.33;3.10;;;19.10;99.90;;;;;;5099537;28;20739;-70
2022/05/18 08:41:39;;;;;;;6.03;2.30;;;19.20;99.90;;;;;;5099865;28;20454;-70
2022/05/18 08:44:08;;;;;;;21.27;3.70;;;19.30;99.90;;;;;;5099858;28;20572;-70
2022/05/18 08:46:44;;;;;;;6.53;3.03;;;19.40;99.90;;;;;;5101433;28;20464;-70
2022/05/18 08:49:21;;;;;;;4.40;3.07;;;19.50;99.90;;;;;;5101099;28;20444;-69
2022/05/18 08:51:58;;;;;;;5.47;2.97;;;19.60;99.90;;;;;;5099959;28;20474;-69
2022/05/18 08:54:37;;;;;;;3.77;3.30;;;19.60;99.90;;;;;;5098917;28;20438;-70
2022/05/18 08:57:09;;;;;;;6.73;3.53;;;19.70;99.90;;;;;;5100617;28;20437;-70
2022/05/18 08:59:40;;;;;;;4.30;3.90;;;19.70;99.90;;;;;;5103547;28;20437;-69
2022/05/18 09:02:14;;;;;;;9.93;6.60;;;19.80;99.90;;;;;;5102042;28;20467;-70
2022/05/18 09:04:49;;;;;;;8.70;3.70;;;19.90;99.90;;;;;;5103948;28;20438;-70
2022/05/18 09:07:20;;;;;;;5.73;2.67;;;20.00;99.90;;;;;;5104186;28;20820;-70
2022/05/18 09:12:36;;;;;;;5.27;3.13;;;20.10;99.90;;;;;;5103382;28;20421;-70
2022/05/18 09:15:03;;;;;;;6.33;3.20;;;20.10;99.90;;;;;;5104008;28;20522;-69
2022/05/18 09:17:37;;;;;;;5.87;3.13;;;20.10;99.90;;;;;;5103168;28;20468;-69
2022/05/18 09:20:13;;;;;;;6.37;3.10;;;20.10;99.90;;;;;;5104144;28;20438;-70
2022/05/18 09:22:55;;;;;;;4.10;3.30;;;20.20;99.90;;;;;;5103737;28;20551;-70
2022/05/18 09:25:36;;;;;;;5.23;3.50;;;20.30;99.90;;;;;;5104089;28;20465;-70
2022/05/18 09:28:16;;;;;;;5.10;4.50;;;20.40;99.90;;;;;;5103990;28;20616;-69
2022/05/18 09:30:55;;;;;;;6.03;4.40;;;20.60;99.90;;;;;;5103583;28;20449;-70
2022/05/18 09:33:37;;;;;;;3.67;3.30;;;20.70;99.90;;;;;;5103555;28;20440;-70
2022/05/18 09:36:22;;;;;;;9.73;4.03;;;20.90;99.90;;;;;;5102846;28;20441;-70
2022/05/18 09:38:56;;;;;;;4.10;3.10;;;20.90;99.90;;;;;;5104291;28;20445;-69
2022/05/18 09:41:26;;;;;;;4.00;3.60;;;21.00;99.90;;;;;;5103171;28;20952;-70
2022/05/18 09:44:02;;;;;;;8.50;3.60;;;21.10;99.90;;;;;;5100840;28;20541;-70
2022/05/18 09:46:31;;;;;;;7.07;4.07;;;21.20;99.90;;;;;;5100815;28;20767;-71
2022/05/18 09:49:02;;;;;;;14.37;4.10;;;21.40;99.90;;;;;;5102153;28;20537;-70
2022/05/18 09:51:30;;;;;;;5.63;3.77;;;21.50;99.90;;;;;;5102757;28;20438;-69
2022/05/18 09:53:59;;;;;;;5.20;4.60;;;21.60;99.90;;;;;;5102687;28;20461;-70
2022/05/18 09:56:31;;;;;;;4.50;3.80;;;21.70;99.90;;;;;;5102181;28;20540;-70
2022/05/18 09:59:02;;;;;;;5.20;3.83;;;21.80;99.90;;;;;;5102209;28;20479;-70
2022/05/18 10:07:31;;;;;;;6.80;4.10;;;21.90;99.90;;;;;;5101998;28;20480;-69
2022/05/18 10:10:11;;;;;;;4.57;4.00;;;22.00;99.90;;;;;;5101149;28;20933;-70
2022/05/18 10:12:42;;;;;;;4.80;4.40;;;22.10;99.90;;;;;;5104072;28;20447;-70
2022/05/18 10:15:20;;;;;;;7.80;4.40;;;22.20;99.90;;;;;;5102595;28;20507;-70
2022/05/18 10:17:51;;;;;;;8.60;4.50;;;22.30;99.90;;;;;;5102586;28;20875;-71
2022/05/18 10:20:25;;;;;;;8.80;5.10;;;22.30;99.90;;;;;;5101168;28;20457;-69
2022/05/18 10:22:55;;;;;;;5.20;4.37;;;22.30;99.90;;;;;;5102235;28;20457;-70
2022/05/18 10:25:32;;;;;;;4.20;3.63;;;22.30;99.90;;;;;;5102241;28;20480;-70
2022/05/18 10:28:02;;;;;;;8.10;4.73;;;22.40;99.90;;;;;;5103607;28;20437;-71
2022/05/18 10:30:32;;;;;;;6.60;4.50;;;22.50;99.90;;;;;;5102725;28;20495;-70
2022/05/18 10:33:02;;;;;;;4.43;4.00;;;22.60;99.90;;;;;;5103977;28;20477;-70
2022/05/18 10:35:39;;;;;;;6.60;5.10;;;22.70;99.90;;;;;;5103770;28;20488;-70
2022/05/18 10:38:20;;;;;;;5.87;4.20;;;22.80;99.90;;;;;;5104085;28;20438;-70
2022/05/18 10:40:47;;;;;;;5.07;4.57;;;22.90;99.90;;;;;;5104615;28;20452;-70
2022/05/18 10:43:28;;;;;;;6.40;5.00;;;23.10;99.90;;;;;;5103457;28;20492;-69
2022/05/18 10:45:56;;;;;;;6.63;5.63;;;23.30;99.90;;;;;;5104531;28;20433;-69
2022/05/18 10:48:27;;;;;;;7.03;4.77;;;23.40;99.90;;;;;;5100423;28;20467;-70
2022/05/18 10:51:06;;;;;;;6.87;4.90;;;23.30;99.90;;;;;;5100777;28;20441;-70
2022/05/18 10:53:38;;;;;;;5.90;5.33;;;23.30;99.90;;;;;;5101099;28;20434;-70
2022/05/18 10:56:10;;;;;;;7.00;5.30;;;23.40;99.90;;;;;;5102446;28;20437;-70
2022/05/18 10:58:40;;;;;;;6.90;5.30;;;23.40;99.90;;;;;;5101450;28;20873;-69
2022/05/18 11:01:12;;;;;;;7.80;6.27;;;23.40;99.90;;;;;;5100870;28;20438;-69
2022/05/18 11:03:46;;;;;;;10.17;5.63;;;23.40;99.90;;;;;;5101257;28;20468;-70
2022/05/18 11:06:15;;;;;;;12.60;5.20;;;23.50;99.90;;;;;;5100994;28;20449;-70
2022/05/18 11:08:44;;;;;;;6.87;5.50;;;23.70;99.90;;;;;;5101461;28;20842;-70
2022/05/18 11:11:20;;;;;;;5.57;5.07;;;23.70;99.90;;;;;;5102632;28;20450;-69
2022/05/18 11:13:55;;;;;;;6.70;5.20;;;23.90;99.90;;;;;;5104474;28;20479;-70
2022/05/18 11:16:32;;;;;;;6.63;5.03;;;24.20;99.90;;;;;;5104200;28;20498;-71
2022/05/18 11:19:08;;;;;;;5.30;4.60;;;24.60;99.90;;;;;;5104286;28;20438;-70
2022/05/18 11:21:46;;;;;;;5.00;4.60;;;25.10;99.90;;;;;;5105079;28;20448;-70
2022/05/18 11:24:24;;;;;;;6.43;4.57;;;26.00;98.80;;;;;;5105416;28;20472;-71
2022/05/18 11:27:01;;;;;;;4.70;4.30;;;26.70;96.90;;;;;;5105374;28;20460;-70
2022/05/18 11:29:42;;;;;;;4.83;3.70;;;27.60;94.40;;;;;;5104173;28;20502;-71
2022/05/18 11:32:21;;;;;;;3.50;3.20;;;28.40;90.00;;;;;;5105073;28;20441;-69
2022/05/18 11:35:13;;;;;;;8.60;3.70;;;28.80;78.80;;;;;;5105032;28;20532;-71
2022/05/18 11:38:23;;;;;;;6.20;4.13;;;29.10;73.50;;;;;;5104767;28;20507;-70
2022/05/18 11:41:07;;;;;;;3.80;3.43;;;29.70;69.10;;;;;;5042720;28;20451;-70
2022/05/18 11:43:44;;;;;;;5.27;3.37;;;29.90;59.50;;;;;;5040941;28;20861;-70
2022/05/18 11:46:32;;;;;;;5.43;3.67;;;30.20;57.10;;;;;;5086224;28;20452;-70
2022/05/18 11:49:09;;;;;;;6.67;4.20;;;30.20;58.00;;;;;;5103889;28;20477;-70
2022/05/18 11:51:43;;;;;;;4.30;3.90;;;30.70;56.60;;;;;;5103780;28;20882;-70
2022/05/18 11:54:24;;;;;;;6.20;3.80;;;31.10;53.60;;;;;;5104464;28;20430;-69
2022/05/18 11:57:01;;;;;;;3.70;3.40;;;31.20;52.50;;;;;;5104428;28;20449;-69
2022/05/18 11:59:57;;;;;;;3.77;3.47;;;31.20;52.10;;;;;;5104402;28;20521;-70
2022/05/18 12:02:54;;;;;;;4.20;3.77;;;31.70;51.40;;;;;;5102443;28;20624;-70
2022/05/18 12:05:54;;;;;;;7.20;3.70;;;32.00;50.70;;;;;;5074537;28;20548;-70
2022/05/18 12:08:34;;;;;;;4.20;3.80;;;31.70;50.10;;;;;;5101943;28;21038;-70
2022/05/18 12:11:11;;;;;;;3.83;3.53;;;32.00;50.10;;;;;;5101586;28;20437;-70
2022/05/18 12:13:47;;;;;;;5.57;4.03;;;32.30;48.70;;;;;;5101713;28;20457;-70
2022/05/18 12:16:21;;;;;;;7.37;3.63;;;32.30;48.40;;;;;;5102323;28;20434;-70
2022/05/18 12:18:51;;;;;;;6.67;4.10;;;32.50;47.80;;;;;;5101556;28;20436;-69
2022/05/18 12:21:23;;;;;;;6.53;3.83;;;32.10;48.00;;;;;;5102101;28;20453;-68
2022/05/18 12:23:54;;;;;;;4.47;4.07;;;31.80;47.90;;;;;;5102728;28;20466;-69
2022/05/18 12:26:22;;;;;;;4.00;3.70;;;31.50;48.20;;;;;;5104018;28;20434;-70
2022/05/18 12:28:52;;;;;;;5.03;4.10;;;31.50;48.90;;;;;;5103377;28;20490;-70
2022/05/18 12:31:19;;;;;;;5.13;3.87;;;31.90;47.60;;;;;;5104053;28;20464;-70
2022/05/18 12:33:56;;;;;;;3.83;3.53;;;32.30;47.90;;;;;;5103308;28;20468;-70
2022/05/18 12:36:29;;;;;;;3.63;3.30;;;32.00;45.40;;;;;;5102408;28;20886;-69
2022/05/18 12:39:06;;;;;;;8.10;3.97;;;32.00;44.10;;;;;;5103509;28;20453;-70
2022/05/18 12:41:33;;;;;;;6.10;3.50;;;31.50;43.80;;;;;;5102140;28;20452;-70
2022/05/18 12:44:07;;;;;;;4.57;3.33;;;31.80;44.20;;;;;;5102459;28;20485;-70
2022/05/18 12:46:38;;;;;;;5.00;3.80;;;31.70;45.00;;;;;;5101796;28;20774;-70
2022/05/18 12:49:08;;;;;;;3.93;3.47;;;31.80;44.90;;;;;;5101957;28;20459;-70
2022/05/18 12:51:52;;;;;;;6.93;3.60;;;31.60;45.10;;;;;;5101042;28;20434;-70
2022/05/18 12:54:29;;;;;;;13.30;3.40;;;31.30;43.60;;;;;;5102330;28;20551;-70
2022/05/18 12:57:21;;;;;;;3.93;3.50;;;31.20;44.10;;;;;;5101618;28;20854;-70
2022/05/18 13:00:39;;;;;;;3.83;3.27;;;31.30;45.50;;;;;;5098611;28;20836;-70
2022/05/18 13:03:24;;;;;;;3.60;3.30;;;31.90;44.50;;;;;;5097774;28;20461;-70
2022/05/18 13:05:55;;;;;;;5.40;3.27;;;32.50;43.10;;;;;;5098520;28;20532;-70
2022/05/18 13:09:07;;;;;;;5.23;3.33;;;32.50;42.20;;;;;;5098558;28;20504;-71
2022/05/18 13:11:47;;;;;;;4.63;3.70;;;32.70;42.70;;;;;;5097613;28;20575;-71
2022/05/18 13:14:44;;;;;;;4.23;3.93;;;32.50;43.30;;;;;;5098005;28;20827;-71
2022/05/18 13:17:18;;;;;;;5.17;4.57;;;32.60;42.80;;;;;;5063400;28;20453;-70
2022/05/18 13:19:48;;;;;;;5.20;3.70;;;33.00;43.50;;;;;;5096910;28;20901;-70
2022/05/18 13:22:33;;;;;;;7.57;4.23;;;32.70;43.30;;;;;;5097822;28;20536;-70